Time;durP1;ratioP1;P1;durP2;ratioP2;P2;SDS_P1;SDS_P2;PMS_P1;PMS_P2;Temp;Humidity;BMP_temperature;BMP_pressure;BME280_temperature;BME280_humidity;BME280_pressure;Samples;Min_cycle;Max_cycle;Signal;HPM_P1;HPM_P2
2023/12/23 00:02:23;;;;;;;0.63;0.43;;;;;;;;;;5022308;28;20132;-69
2023/12/23 00:04:49;;;;;;;1.27;0.47;;;;;;;;;;5021352;28;20048;-68
2023/12/23 00:07:14;;;;;;;0.30;0.30;;;;;;;;;;5021548;28;20120;-69
2023/12/23 00:09:41;;;;;;;1.08;0.30;;;;;;;;;;5020556;28;20546;-69
2023/12/23 00:12:08;;;;;;;0.75;0.30;;;;;;;;;;5024717;28;20049;-68
2023/12/23 00:14:34;;;;;;;0.30;0.30;;;;;;;;;;5022077;28;20064;-69
2023/12/23 00:17:00;;;;;;;0.40;0.40;;;;;;;;;;5017923;28;20037;-68
2023/12/23 00:19:25;;;;;;;0.40;0.40;;;;;;;;;;5022586;28;20056;-69
2023/12/23 00:21:50;;;;;;;0.55;0.50;;;;;;;;;;5017824;28;20559;-69
2023/12/23 00:24:16;;;;;;;0.30;0.30;;;;;;;;;;5018624;28;20042;-69
2023/12/23 00:26:41;;;;;;;1.65;0.30;;;;;;;;;;5019744;28;20049;-69
2023/12/23 00:29:07;;;;;;;0.30;0.30;;;;;;;;;;5018903;28;20049;-70
2023/12/23 00:31:32;;;;;;;0.20;0.20;;;;;;;;;;5015283;28;20041;-68
2023/12/23 00:33:58;;;;;;;0.40;0.40;;;;;;;;;;5017156;28;20122;-69
2023/12/23 00:36:23;;;;;;;0.52;0.52;;;;;;;;;;5032064;28;20069;-68
2023/12/23 00:38:49;;;;;;;0.70;0.40;;;;;;;;;;5019728;28;20436;-69
2023/12/23 00:41:15;;;;;;;0.47;0.47;;;;;;;;;;5021511;28;20500;-68
2023/12/23 00:43:40;;;;;;;0.30;0.30;;;;;;;;;;5016246;28;20045;-70
2023/12/23 00:46:09;;;;;;;0.43;0.35;;;;;;;;;;5017738;28;20041;-67
2023/12/23 00:48:34;;;;;;;0.40;0.40;;;;;;;;;;5022579;28;20052;-68
2023/12/23 00:51:00;;;;;;;0.40;0.30;;;;;;;;;;5018272;28;20105;-69
2023/12/23 00:53:26;;;;;;;0.40;0.40;;;;;;;;;;5018728;28;20055;-69
2023/12/23 00:55:54;;;;;;;0.50;0.50;;;;;;;;;;5022599;28;20053;-69
2023/12/23 00:58:19;;;;;;;0.70;0.52;;;;;;;;;;5035172;28;20045;-68
2023/12/23 01:00:45;;;;;;;0.63;0.40;;;;;;;;;;5023227;28;20041;-68
2023/12/23 01:03:10;;;;;;;0.35;0.35;;;;;;;;;;5003604;28;20041;-68
2023/12/23 01:05:36;;;;;;;3.92;0.50;;;;;;;;;;5009736;28;20131;-68
2023/12/23 01:08:01;;;;;;;0.55;0.40;;;;;;;;;;5012131;28;20565;-67
2023/12/23 01:10:27;;;;;;;0.28;0.28;;;;;;;;;;5017228;28;20041;-69
2023/12/23 01:12:53;;;;;;;0.20;0.20;;;;;;;;;;5017710;28;20045;-70
2023/12/23 01:15:18;;;;;;;0.32;0.32;;;;;;;;;;5015864;28;20115;-67
2023/12/23 01:17:44;;;;;;;0.65;0.40;;;;;;;;;;5016085;28;20053;-67
2023/12/23 01:20:10;;;;;;;0.47;0.40;;;;;;;;;;5024126;28;20048;-67
2023/12/23 01:22:36;;;;;;;0.40;0.32;;;;;;;;;;5041940;28;20049;-68
2023/12/23 01:25:02;;;;;;;0.45;0.45;;;;;;;;;;5017093;28;20041;-68
2023/12/23 01:27:27;;;;;;;0.95;0.40;;;;;;;;;;5028048;28;20049;-69
2023/12/23 01:29:53;;;;;;;0.40;0.40;;;;;;;;;;5034437;28;20114;-70
2023/12/23 01:32:18;;;;;;;0.20;0.20;;;;;;;;;;5035909;28;20048;-69
2023/12/23 01:34:44;;;;;;;0.70;0.30;;;;;;;;;;5035199;28;20172;-68
2023/12/23 01:37:09;;;;;;;0.20;0.20;;;;;;;;;;5033416;28;20033;-69
2023/12/23 01:39:35;;;;;;;0.52;0.30;;;;;;;;;;5051407;28;20094;-69
2023/12/23 01:42:00;;;;;;;0.30;0.30;;;;;;;;;;5035385;28;20044;-68
2023/12/23 01:44:26;;;;;;;0.60;0.40;;;;;;;;;;5034863;28;20814;-68
2023/12/23 01:46:53;;;;;;;0.30;0.30;;;;;;;;;;5037260;28;20127;-67
2023/12/23 01:49:20;;;;;;;0.45;0.40;;;;;;;;;;5037907;28;20072;-67
2023/12/23 01:51:48;;;;;;;0.30;0.30;;;;;;;;;;5037895;28;20045;-68
2023/12/23 01:54:13;;;;;;;0.20;0.20;;;;;;;;;;5055149;28;20049;-67
2023/12/23 01:56:39;;;;;;;0.30;0.30;;;;;;;;;;5038301;28;20519;-67
2023/12/23 01:59:06;;;;;;;0.30;0.30;;;;;;;;;;5037924;28;20120;-66
2023/12/23 02:01:34;;;;;;;0.30;0.30;;;;;;;;;;5038986;28;20091;-67
2023/12/23 02:04:00;;;;;;;0.68;0.30;;;;;;;;;;5037620;28;20155;-68
2023/12/23 02:06:25;;;;;;;0.40;0.40;;;;;;;;;;5038531;28;20044;-67
2023/12/23 02:08:51;;;;;;;0.20;0.20;;;;;;;;;;5037300;28;20059;-67
2023/12/23 02:11:29;;;;;;;0.20;0.20;;;;;;;;;;5038231;28;20617;-68
2023/12/23 02:14:05;;;;;;;0.20;0.20;;;;;;;;;;5035286;28;20122;-66
2023/12/23 02:16:31;;;;;;;0.20;0.20;;;;;;;;;;5027346;28;20120;-68
2023/12/23 02:18:57;;;;;;;0.30;0.30;;;;;;;;;;5037884;28;20293;-68
2023/12/23 02:21:23;;;;;;;0.20;0.20;;;;;;;;;;5038372;28;20045;-71
2023/12/23 02:23:49;;;;;;;1.33;0.40;;;;;;;;;;5036961;28;20048;-68
2023/12/23 02:26:17;;;;;;;0.20;0.20;;;;;;;;;;5039594;28;20136;-66
2023/12/23 02:28:44;;;;;;;0.20;0.20;;;;;;;;;;5037801;28;20037;-66
2023/12/23 02:31:10;;;;;;;0.52;0.52;;;;;;;;;;5039318;28;20041;-68
2023/12/23 02:33:36;;;;;;;0.20;0.20;;;;;;;;;;5036589;28;20055;-69
2023/12/23 02:36:01;;;;;;;0.30;0.30;;;;;;;;;;5038066;28;20052;-67
2023/12/23 02:38:28;;;;;;;0.43;0.43;;;;;;;;;;5039625;28;20049;-67
2023/12/23 02:40:54;;;;;;;0.20;0.20;;;;;;;;;;5036757;28;20653;-67
2023/12/23 02:43:19;;;;;;;0.63;0.40;;;;;;;;;;5020968;28;20049;-68
2023/12/23 02:45:45;;;;;;;0.30;0.30;;;;;;;;;;5037788;28;20049;-68
2023/12/23 02:48:10;;;;;;;1.02;0.40;;;;;;;;;;5036720;28;20064;-68
2023/12/23 02:50:36;;;;;;;0.30;0.30;;;;;;;;;;5039002;28;20063;-67
2023/12/23 02:53:01;;;;;;;0.20;0.20;;;;;;;;;;5036445;28;20056;-68
2023/12/23 02:55:26;;;;;;;0.30;0.30;;;;;;;;;;5037232;28;20111;-68
2023/12/23 02:57:52;;;;;;;0.30;0.30;;;;;;;;;;5037350;28;20045;-67
2023/12/23 03:00:17;;;;;;;0.10;0.10;;;;;;;;;;5037321;28;20049;-69
2023/12/23 03:02:43;;;;;;;0.25;0.25;;;;;;;;;;5038734;28;20059;-68
2023/12/23 03:05:08;;;;;;;0.98;0.40;;;;;;;;;;5035450;28;20037;-68
2023/12/23 03:07:33;;;;;;;0.20;0.20;;;;;;;;;;5037493;28;20143;-67
2023/12/23 03:10:00;;;;;;;0.20;0.20;;;;;;;;;;5037703;28;20132;-67
2023/12/23 03:12:25;;;;;;;0.20;0.20;;;;;;;;;;5038115;28;20136;-67
2023/12/23 03:14:50;;;;;;;0.30;0.30;;;;;;;;;;5036546;28;20053;-66
2023/12/23 03:17:16;;;;;;;0.20;0.20;;;;;;;;;;5036233;28;20036;-67
2023/12/23 03:19:42;;;;;;;0.30;0.30;;;;;;;;;;5037722;28;20053;-67
2023/12/23 03:22:07;;;;;;;0.22;0.22;;;;;;;;;;5038509;28;20083;-67
2023/12/23 03:24:32;;;;;;;0.38;0.20;;;;;;;;;;5038250;28;20072;-67
2023/12/23 03:26:58;;;;;;;0.20;0.20;;;;;;;;;;5035628;28;20041;-66
2023/12/23 03:29:23;;;;;;;0.30;0.28;;;;;;;;;;5035010;28;20142;-67
2023/12/23 03:31:49;;;;;;;0.30;0.30;;;;;;;;;;5036247;28;20122;-69
2023/12/23 03:34:14;;;;;;;0.30;0.30;;;;;;;;;;5038010;28;20071;-69
2023/12/23 03:36:39;;;;;;;0.20;0.20;;;;;;;;;;5036897;28;20423;-70
2023/12/23 03:39:06;;;;;;;0.52;0.40;;;;;;;;;;5035592;28;20049;-69
2023/12/23 03:41:31;;;;;;;0.30;0.30;;;;;;;;;;5036655;28;20131;-69
2023/12/23 03:43:57;;;;;;;0.20;0.20;;;;;;;;;;5037091;28;20094;-67
2023/12/23 03:46:22;;;;;;;0.22;0.22;;;;;;;;;;5036586;28;20083;-67
2023/12/23 03:48:48;;;;;;;0.30;0.30;;;;;;;;;;5038489;28;20395;-68
2023/12/23 03:51:14;;;;;;;0.20;0.20;;;;;;;;;;5036136;28;20036;-67
2023/12/23 03:53:42;;;;;;;0.22;0.20;;;;;;;;;;5035483;28;20076;-68
2023/12/23 03:56:07;;;;;;;0.30;0.30;;;;;;;;;;5036692;28;20053;-68
2023/12/23 03:58:33;;;;;;;0.20;0.20;;;;;;;;;;5037563;28;20037;-67
2023/12/23 04:00:58;;;;;;;0.20;0.20;;;;;;;;;;5034466;28;20040;-68
2023/12/23 04:03:23;;;;;;;0.20;0.20;;;;;;;;;;5036506;28;20045;-66
2023/12/23 04:05:49;;;;;;;0.30;0.30;;;;;;;;;;5022726;28;20135;-67
2023/12/23 04:08:16;;;;;;;0.40;0.30;;;;;;;;;;5035642;28;20048;-68
2023/12/23 04:10:41;;;;;;;0.57;0.30;;;;;;;;;;5028618;28;20075;-67
2023/12/23 04:13:08;;;;;;;0.55;0.20;;;;;;;;;;5029119;28;20413;-66
2023/12/23 04:15:34;;;;;;;0.20;0.20;;;;;;;;;;5035249;28;20675;-67
2023/12/23 04:18:00;;;;;;;0.20;0.20;;;;;;;;;;5035524;28;20037;-67
2023/12/23 04:20:25;;;;;;;0.30;0.30;;;;;;;;;;5036516;28;20048;-66
2023/12/23 04:22:51;;;;;;;0.20;0.20;;;;;;;;;;5035499;28;20044;-68
2023/12/23 04:25:17;;;;;;;0.32;0.32;;;;;;;;;;5036864;28;20139;-66
2023/12/23 04:27:42;;;;;;;0.47;0.40;;;;;;;;;;5035543;28;20134;-67
2023/12/23 04:30:09;;;;;;;0.30;0.30;;;;;;;;;;5035261;28;20127;-68
2023/12/23 04:32:34;;;;;;;1.60;0.30;;;;;;;;;;5034908;28;20049;-66
2023/12/23 04:35:01;;;;;;;0.20;0.20;;;;;;;;;;5033423;28;20530;-68
2023/12/23 04:37:27;;;;;;;0.32;0.32;;;;;;;;;;5035106;28;20036;-67
2023/12/23 04:39:56;;;;;;;0.22;0.22;;;;;;;;;;5035605;28;20072;-68
2023/12/23 04:42:21;;;;;;;0.30;0.30;;;;;;;;;;5036192;28;20036;-66
2023/12/23 04:44:47;;;;;;;2.78;0.30;;;;;;;;;;5035243;28;20040;-67
2023/12/23 04:47:12;;;;;;;0.30;0.30;;;;;;;;;;5036499;28;20045;-67
2023/12/23 04:49:39;;;;;;;0.30;0.30;;;;;;;;;;5035003;28;20086;-67
2023/12/23 04:52:04;;;;;;;0.20;0.20;;;;;;;;;;5035641;28;20045;-67
2023/12/23 04:54:32;;;;;;;0.28;0.28;;;;;;;;;;5035690;28;20040;-67
2023/12/23 04:56:57;;;;;;;0.75;0.30;;;;;;;;;;5035191;28;20060;-66
2023/12/23 04:59:23;;;;;;;0.20;0.20;;;;;;;;;;5035631;28;20144;-67
2023/12/23 05:01:49;;;;;;;0.32;0.30;;;;;;;;;;5034490;28;20049;-68
2023/12/23 05:04:15;;;;;;;0.20;0.20;;;;;;;;;;5036276;28;20076;-68
2023/12/23 05:06:40;;;;;;;0.20;0.20;;;;;;;;;;5034365;28;20131;-66
2023/12/23 05:09:05;;;;;;;0.20;0.20;;;;;;;;;;5017103;28;20065;-66
2023/12/23 05:11:31;;;;;;;0.25;0.22;;;;;;;;;;5034553;28;20123;-67
2023/12/23 05:13:57;;;;;;;0.20;0.20;;;;;;;;;;5037601;28;20057;-67
2023/12/23 05:16:22;;;;;;;0.20;0.20;;;;;;;;;;5056553;28;20048;-68
2023/12/23 05:18:47;;;;;;;0.20;0.20;;;;;;;;;;5038418;28;20056;-67
2023/12/23 05:21:14;;;;;;;0.20;0.20;;;;;;;;;;5056825;28;20044;-68
2023/12/23 05:23:40;;;;;;;0.30;0.30;;;;;;;;;;5041679;28;20133;-66
2023/12/23 05:26:05;;;;;;;0.30;0.30;;;;;;;;;;5041383;28;20057;-68
2023/12/23 05:28:31;;;;;;;0.30;0.30;;;;;;;;;;5030320;28;20054;-67
2023/12/23 05:30:56;;;;;;;0.28;0.28;;;;;;;;;;5042648;28;20044;-68
2023/12/23 05:33:24;;;;;;;0.30;0.30;;;;;;;;;;5047378;28;20056;-67
2023/12/23 05:35:50;;;;;;;0.30;0.30;;;;;;;;;;5044643;28;20124;-69
2023/12/23 05:38:16;;;;;;;0.28;0.28;;;;;;;;;;5047958;28;20049;-67
2023/12/23 05:40:41;;;;;;;0.30;0.30;;;;;;;;;;5049786;28;20055;-69
2023/12/23 05:43:07;;;;;;;5.20;0.30;;;;;;;;;;5054552;28;20101;-69
2023/12/23 05:45:32;;;;;;;0.30;0.30;;;;;;;;;;5039063;28;20705;-67
2023/12/23 05:47:58;;;;;;;0.30;0.30;;;;;;;;;;5059737;28;20052;-65
2023/12/23 05:50:23;;;;;;;0.30;0.30;;;;;;;;;;5059565;28;20967;-66
2023/12/23 05:52:49;;;;;;;0.20;0.20;;;;;;;;;;5041526;28;20056;-68
2023/12/23 05:55:14;;;;;;;0.30;0.30;;;;;;;;;;5058497;28;20113;-68
2023/12/23 05:57:39;;;;;;;0.20;0.20;;;;;;;;;;5059222;28;20095;-67
2023/12/23 06:00:06;;;;;;;0.30;0.30;;;;;;;;;;5058688;28;20067;-67
2023/12/23 06:02:37;;;;;;;0.40;0.40;;;;;;;;;;5059283;28;20076;-66
2023/12/23 06:05:03;;;;;;;0.38;0.30;;;;;;;;;;5059153;28;20067;-68
2023/12/23 06:07:29;;;;;;;0.98;0.38;;;;;;;;;;5056708;28;20072;-68
2023/12/23 06:09:54;;;;;;;0.22;0.22;;;;;;;;;;5059029;28;20135;-69
2023/12/23 06:12:20;;;;;;;0.73;0.28;;;;;;;;;;5058095;28;20044;-67
2023/12/23 06:14:46;;;;;;;0.20;0.20;;;;;;;;;;5059784;28;20142;-67
2023/12/23 06:17:11;;;;;;;0.20;0.20;;;;;;;;;;5056186;28;20037;-67
2023/12/23 06:19:36;;;;;;;0.20;0.20;;;;;;;;;;5057629;28;20373;-68
2023/12/23 06:22:02;;;;;;;0.20;0.20;;;;;;;;;;5058620;28;20052;-67
2023/12/23 06:24:27;;;;;;;0.30;0.30;;;;;;;;;;5058557;28;20036;-67
2023/12/23 06:26:53;;;;;;;0.20;0.20;;;;;;;;;;5059275;28;20383;-68
2023/12/23 06:29:18;;;;;;;0.28;0.28;;;;;;;;;;5058335;28;20132;-67
2023/12/23 06:31:43;;;;;;;2.65;0.73;;;;;;;;;;5058568;28;20094;-67
2023/12/23 06:34:09;;;;;;;0.20;0.20;;;;;;;;;;5056471;28;20079;-69
2023/12/23 06:36:34;;;;;;;0.20;0.20;;;;;;;;;;5058585;28;20037;-68
2023/12/23 06:38:59;;;;;;;0.20;0.20;;;;;;;;;;5058898;28;20465;-69
2023/12/23 06:41:25;;;;;;;0.43;0.43;;;;;;;;;;5058129;28;20048;-67
2023/12/23 06:43:51;;;;;;;0.15;0.15;;;;;;;;;;5058103;28;20076;-69
2023/12/23 06:46:16;;;;;;;0.30;0.30;;;;;;;;;;5057476;28;20044;-68
2023/12/23 06:48:41;;;;;;;0.30;0.30;;;;;;;;;;5059047;28;20041;-67
2023/12/23 06:51:07;;;;;;;0.30;0.30;;;;;;;;;;5058781;28;20048;-69
2023/12/23 06:53:32;;;;;;;0.40;0.40;;;;;;;;;;5057459;28;20040;-68
2023/12/23 06:55:57;;;;;;;0.32;0.32;;;;;;;;;;5058723;28;20127;-67
2023/12/23 06:58:26;;;;;;;0.20;0.20;;;;;;;;;;5056777;28;20094;-67
2023/12/23 07:00:52;;;;;;;0.30;0.30;;;;;;;;;;5058369;28;20410;-67
2023/12/23 07:03:17;;;;;;;0.20;0.20;;;;;;;;;;5057851;28;20056;-68
2023/12/23 07:05:43;;;;;;;0.52;0.40;;;;;;;;;;5057891;28;20133;-69
2023/12/23 07:08:08;;;;;;;0.30;0.30;;;;;;;;;;5056931;28;20068;-67
2023/12/23 07:10:33;;;;;;;0.30;0.30;;;;;;;;;;5058755;28;20051;-69
2023/12/23 07:12:59;;;;;;;0.25;0.25;;;;;;;;;;5058230;28;20156;-68
2023/12/23 07:15:24;;;;;;;0.30;0.30;;;;;;;;;;5039543;28;20477;-69
2023/12/23 07:17:50;;;;;;;0.30;0.30;;;;;;;;;;5039304;28;20054;-67
2023/12/23 07:20:16;;;;;;;0.28;0.28;;;;;;;;;;5056418;28;20040;-67
2023/12/23 07:22:41;;;;;;;0.40;0.40;;;;;;;;;;5058526;28;20428;-68
2023/12/23 07:25:07;;;;;;;0.30;0.30;;;;;;;;;;5057464;28;20044;-67
2023/12/23 07:27:32;;;;;;;0.30;0.30;;;;;;;;;;5057373;28;20048;-67
2023/12/23 07:29:58;;;;;;;0.30;0.30;;;;;;;;;;5057006;28;20522;-67
2023/12/23 07:32:24;;;;;;;0.32;0.20;;;;;;;;;;5056872;28;20052;-66
2023/12/23 07:34:49;;;;;;;0.30;0.30;;;;;;;;;;5057413;28;20555;-68
2023/12/23 07:37:15;;;;;;;0.85;0.40;;;;;;;;;;5057639;28;20491;-68
2023/12/23 07:39:41;;;;;;;1.73;0.30;;;;;;;;;;5057348;28;20564;-65
2023/12/23 07:42:06;;;;;;;0.43;0.43;;;;;;;;;;5056409;28;20040;-69
2023/12/23 07:44:36;;;;;;;0.35;0.35;;;;;;;;;;5057005;28;20044;-66
2023/12/23 07:47:02;;;;;;;0.30;0.30;;;;;;;;;;5039389;28;20503;-66
2023/12/23 07:49:28;;;;;;;0.45;0.45;;;;;;;;;;5056908;28;20040;-69
2023/12/23 07:51:53;;;;;;;0.35;0.35;;;;;;;;;;5056668;28;20071;-67
2023/12/23 07:54:19;;;;;;;0.30;0.30;;;;;;;;;;5057154;28;20052;-69
2023/12/23 07:56:44;;;;;;;0.30;0.30;;;;;;;;;;5057355;28;20048;-67
2023/12/23 07:59:10;;;;;;;0.40;0.40;;;;;;;;;;5056551;28;20040;-68
2023/12/23 08:01:43;;;;;;;0.20;0.20;;;;;;;;;;5056843;28;20416;-67
2023/12/23 08:04:08;;;;;;;1.20;0.40;;;;;;;;;;5056217;28;20052;-68
2023/12/23 08:06:33;;;;;;;0.40;0.35;;;;;;;;;;5057248;28;20040;-70
2023/12/23 08:08:59;;;;;;;0.30;0.30;;;;;;;;;;5057703;28;20071;-71
2023/12/23 08:11:24;;;;;;;0.30;0.30;;;;;;;;;;5056801;28;20064;-69
2023/12/23 08:13:50;;;;;;;0.50;0.50;;;;;;;;;;5055977;28;20113;-70
2023/12/23 08:16:15;;;;;;;0.40;0.40;;;;;;;;;;5056442;28;20151;-69
2023/12/23 08:18:41;;;;;;;0.38;0.38;;;;;;;;;;5057472;28;20097;-67
2023/12/23 08:21:08;;;;;;;0.40;0.40;;;;;;;;;;5056945;28;20425;-67
2023/12/23 08:23:33;;;;;;;0.40;0.40;;;;;;;;;;5056480;28;20040;-66
2023/12/23 08:25:59;;;;;;;0.20;0.20;;;;;;;;;;5056530;28;20056;-66
2023/12/23 08:28:25;;;;;;;0.50;0.50;;;;;;;;;;5056470;28;20052;-68
2023/12/23 08:30:51;;;;;;;0.68;0.60;;;;;;;;;;5058078;28;20040;-67
2023/12/23 08:33:16;;;;;;;0.40;0.40;;;;;;;;;;5056803;28;20406;-68
2023/12/23 08:35:43;;;;;;;0.40;0.40;;;;;;;;;;5056503;28;20040;-68
2023/12/23 08:38:09;;;;;;;1.40;0.50;;;;;;;;;;5028463;28;20056;-68
2023/12/23 08:40:34;;;;;;;0.50;0.50;;;;;;;;;;5042349;28;20041;-68
2023/12/23 08:42:59;;;;;;;0.40;0.40;;;;;;;;;;5050236;28;20044;-66
2023/12/23 08:45:25;;;;;;;0.40;0.40;;;;;;;;;;5048178;28;20879;-68
2023/12/23 08:47:50;;;;;;;1.00;0.30;;;;;;;;;;5042575;28;20049;-66
2023/12/23 08:50:16;;;;;;;0.20;0.20;;;;;;;;;;5037977;28;20158;-66
2023/12/23 08:52:41;;;;;;;0.32;0.30;;;;;;;;;;5037522;28;20044;-67
2023/12/23 08:55:07;;;;;;;1.92;0.30;;;;;;;;;;5050119;28;20131;-66
2023/12/23 08:57:33;;;;;;;0.40;0.40;;;;;;;;;;5037543;28;20048;-68
2023/12/23 09:00:00;;;;;;;0.40;0.40;;;;;;;;;;5057010;28;20134;-68
2023/12/23 09:02:25;;;;;;;0.63;0.30;;;;;;;;;;5039170;28;20049;-68
2023/12/23 09:04:51;;;;;;;0.30;0.30;;;;;;;;;;5057640;28;20051;-66
2023/12/23 09:07:16;;;;;;;0.50;0.50;;;;;;;;;;5040984;28;20164;-66
2023/12/23 09:09:42;;;;;;;0.40;0.40;;;;;;;;;;5042379;28;20040;-66
2023/12/23 09:12:07;;;;;;;0.40;0.40;;;;;;;;;;5043621;28;20068;-68
2023/12/23 09:14:33;;;;;;;0.47;0.30;;;;;;;;;;5044021;28;20763;-66
2023/12/23 09:16:58;;;;;;;0.20;0.20;;;;;;;;;;5040057;28;20500;-68
2023/12/23 09:19:23;;;;;;;0.40;0.30;;;;;;;;;;5039709;28;20131;-66
2023/12/23 09:21:49;;;;;;;0.63;0.30;;;;;;;;;;5044708;28;20845;-67
2023/12/23 09:24:14;;;;;;;0.40;0.40;;;;;;;;;;5040030;28;20117;-66
2023/12/23 09:26:41;;;;;;;1.33;0.38;;;;;;;;;;5050281;28;20048;-68
2023/12/23 09:29:07;;;;;;;0.30;0.30;;;;;;;;;;5044009;28;20097;-67
2023/12/23 09:31:33;;;;;;;0.30;0.30;;;;;;;;;;5047277;28;20037;-68
2023/12/23 09:33:58;;;;;;;0.35;0.35;;;;;;;;;;5045280;28;20457;-67
2023/12/23 09:36:24;;;;;;;0.30;0.30;;;;;;;;;;5052690;28;20056;-68
2023/12/23 09:38:49;;;;;;;0.25;0.25;;;;;;;;;;5046307;28;20071;-69
2023/12/23 09:41:14;;;;;;;0.63;0.38;;;;;;;;;;5038867;28;20044;-68
2023/12/23 09:43:40;;;;;;;0.30;0.30;;;;;;;;;;5045779;28;20090;-69
2023/12/23 09:46:07;;;;;;;0.30;0.20;;;;;;;;;;5039827;28;20091;-67
2023/12/23 09:48:33;;;;;;;0.28;0.28;;;;;;;;;;5040254;28;20056;-68
2023/12/23 09:50:58;;;;;;;0.20;0.20;;;;;;;;;;5040815;28;20053;-67
2023/12/23 09:53:26;;;;;;;0.57;0.30;;;;;;;;;;5043205;28;20052;-67
2023/12/23 09:55:52;;;;;;;0.30;0.30;;;;;;;;;;5039438;28;20060;-69
2023/12/23 09:58:18;;;;;;;0.30;0.30;;;;;;;;;;5038892;28;20061;-67
2023/12/23 10:00:46;;;;;;;5.38;0.50;;;;;;;;;;5040018;28;20159;-69
2023/12/23 10:03:11;;;;;;;0.30;0.30;;;;;;;;;;5039168;28;20052;-68
2023/12/23 10:05:43;;;;;;;0.20;0.20;;;;;;;;;;5039116;28;20048;-71
2023/12/23 10:08:09;;;;;;;0.35;0.35;;;;;;;;;;5040084;28;20542;-71
2023/12/23 10:10:34;;;;;;;0.20;0.20;;;;;;;;;;5039065;28;20131;-70
2023/12/23 10:13:00;;;;;;;0.28;0.28;;;;;;;;;;5040177;28;20040;-67
2023/12/23 10:15:25;;;;;;;0.20;0.20;;;;;;;;;;5038143;28;20091;-70
2023/12/23 10:17:52;;;;;;;0.47;0.40;;;;;;;;;;5039581;28;20053;-69
2023/12/23 10:20:17;;;;;;;0.20;0.20;;;;;;;;;;5038717;28;20499;-67
2023/12/23 10:22:46;;;;;;;0.20;0.20;;;;;;;;;;5040435;28;20049;-68
2023/12/23 10:25:13;;;;;;;0.22;0.22;;;;;;;;;;5038645;28;20032;-67
2023/12/23 10:27:42;;;;;;;0.73;0.20;;;;;;;;;;5038518;28;20139;-69
2023/12/23 10:30:10;;;;;;;0.55;0.30;;;;;;;;;;5038927;28;20041;-68
2023/12/23 10:32:37;;;;;;;0.20;0.20;;;;;;;;;;5038744;28;20068;-67
2023/12/23 10:35:05;;;;;;;0.30;0.30;;;;;;;;;;5038932;28;20052;-68
2023/12/23 10:37:32;;;;;;;0.20;0.20;;;;;;;;;;5037440;28;20495;-69
2023/12/23 10:40:19;;;;;;;0.30;0.30;;;;;;;;;;5039701;28;20618;-67
2023/12/23 10:42:47;;;;;;;0.30;0.30;;;;;;;;;;5039147;28;20104;-67
2023/12/23 10:45:12;;;;;;;0.22;0.22;;;;;;;;;;5039883;28;20044;-67
2023/12/23 10:47:39;;;;;;;0.30;0.30;;;;;;;;;;5036745;28;20041;-68
2023/12/23 10:50:06;;;;;;;0.30;0.30;;;;;;;;;;5039269;28;20047;-67
2023/12/23 10:52:32;;;;;;;0.20;0.20;;;;;;;;;;5038227;28;20047;-67
2023/12/23 10:55:01;;;;;;;0.30;0.30;;;;;;;;;;5038804;28;20506;-68
2023/12/23 10:57:28;;;;;;;0.30;0.30;;;;;;;;;;5037902;28;20190;-67
2023/12/23 10:59:54;;;;;;;0.30;0.30;;;;;;;;;;5038501;28;20049;-66
2023/12/23 11:02:26;;;;;;;0.75;0.25;;;;;;;;;;5037653;28;20526;-70
2023/12/23 11:04:54;;;;;;;2.05;0.30;;;;;;;;;;5038818;28;20041;-68
2023/12/23 11:07:24;;;;;;;0.32;0.22;;;;;;;;;;5037372;28;20064;-69
2023/12/23 11:09:51;;;;;;;0.30;0.30;;;;;;;;;;5037416;28;20114;-69
2023/12/23 11:12:17;;;;;;;0.25;0.25;;;;;;;;;;5038183;28;20063;-68
2023/12/23 11:14:43;;;;;;;0.20;0.20;;;;;;;;;;5037313;28;20071;-68
2023/12/23 11:17:45;;;;;;;0.22;0.22;;;;;;;;;;5038372;28;20037;-67
2023/12/23 11:20:33;;;;;;;0.20;0.20;;;;;;;;;;4994785;28;20049;-69
2023/12/23 11:23:26;;;;;;;0.20;0.20;;;;;;;;;;5019768;28;20049;-68
2023/12/23 11:25:51;;;;;;;0.40;0.40;;;;;;;;;;5019088;28;20061;-69
2023/12/23 11:28:18;;;;;;;0.40;0.30;;;;;;;;;;5022370;28;20056;-67
2023/12/23 11:30:48;;;;;;;0.30;0.30;;;;;;;;;;5023382;28;20046;-69
2023/12/23 11:33:14;;;;;;;0.52;0.50;;;;;;;;;;5026775;28;20085;-69
2023/12/23 11:35:53;;;;;;;0.60;0.40;;;;;;;;;;5025360;28;20041;-67
2023/12/23 11:38:28;;;;;;;0.20;0.20;;;;;;;;;;5020835;28;20048;-67
2023/12/23 11:40:54;;;;;;;0.20;0.20;;;;;;;;;;5024696;28;20334;-67
2023/12/23 11:43:21;;;;;;;0.20;0.20;;;;;;;;;;5019018;28;20603;-68
2023/12/23 11:45:49;;;;;;;4.18;0.40;;;;;;;;;;5023625;28;20045;-69
2023/12/23 11:48:14;;;;;;;0.22;0.22;;;;;;;;;;5022193;28;20048;-69
2023/12/23 11:50:43;;;;;;;0.20;0.20;;;;;;;;;;5034232;28;20531;-69
2023/12/23 11:53:09;;;;;;;0.30;0.30;;;;;;;;;;5027578;28;20048;-68
2023/12/23 11:55:35;;;;;;;0.25;0.25;;;;;;;;;;5018157;28;20103;-71
2023/12/23 11:58:01;;;;;;;0.55;0.30;;;;;;;;;;5019552;28;20204;-67
2023/12/23 12:00:30;;;;;;;0.30;0.30;;;;;;;;;;5021506;28;20848;-69
2023/12/23 12:02:55;;;;;;;0.28;0.28;;;;;;;;;;5020258;28;20410;-69
2023/12/23 12:05:21;;;;;;;0.25;0.25;;;;;;;;;;5019629;28;20042;-68
2023/12/23 12:07:46;;;;;;;0.30;0.30;;;;;;;;;;5023323;28;20041;-70
2023/12/23 12:10:13;;;;;;;2.05;0.30;;;;;;;;;;5019705;28;20076;-69
2023/12/23 12:12:39;;;;;;;0.30;0.30;;;;;;;;;;5024558;28;20136;-68
2023/12/23 12:15:05;;;;;;;2.90;0.50;;;;;;;;;;5022077;28;20045;-71
2023/12/23 12:17:30;;;;;;;0.22;0.22;;;;;;;;;;5028993;28;20435;-70
2023/12/23 12:19:56;;;;;;;0.30;0.30;;;;;;;;;;5019169;28;20051;-69
2023/12/23 12:22:21;;;;;;;0.20;0.20;;;;;;;;;;5018444;28;20083;-69
2023/12/23 12:24:47;;;;;;;0.40;0.40;;;;;;;;;;5019923;28;20587;-70
2023/12/23 12:27:13;;;;;;;0.40;0.40;;;;;;;;;;5018452;28;20120;-70
2023/12/23 12:29:39;;;;;;;0.30;0.30;;;;;;;;;;5022821;28;20966;-71
2023/12/23 12:32:04;;;;;;;0.30;0.30;;;;;;;;;;5018563;28;20041;-69
2023/12/23 12:34:30;;;;;;;1.13;0.40;;;;;;;;;;5029293;28;20571;-70
2023/12/23 12:36:56;;;;;;;0.20;0.20;;;;;;;;;;5023227;28;20080;-70
2023/12/23 12:39:22;;;;;;;0.70;0.25;;;;;;;;;;5030299;28;20762;-71
2023/12/23 12:41:51;;;;;;;0.40;0.40;;;;;;;;;;5017651;28;20048;-70
2023/12/23 12:44:19;;;;;;;0.30;0.30;;;;;;;;;;5021110;28;20056;-70
2023/12/23 12:46:52;;;;;;;4.70;0.38;;;;;;;;;;5026166;28;20048;-68
2023/12/23 12:49:19;;;;;;;0.40;0.40;;;;;;;;;;5022048;28;20060;-69
2023/12/23 12:51:44;;;;;;;0.20;0.20;;;;;;;;;;5017401;28;20042;-69
2023/12/23 12:54:10;;;;;;;0.47;0.40;;;;;;;;;;5019023;28;20048;-70
2023/12/23 12:56:35;;;;;;;0.60;0.50;;;;;;;;;;5004750;28;20840;-69
2023/12/23 12:59:01;;;;;;;0.20;0.20;;;;;;;;;;5019126;28;20971;-71
2023/12/23 13:01:26;;;;;;;1.48;0.40;;;;;;;;;;5022995;28;20100;-70
2023/12/23 13:03:52;;;;;;;0.20;0.20;;;;;;;;;;5017460;28;20049;-69
2023/12/23 13:06:17;;;;;;;1.02;0.30;;;;;;;;;;5022816;28;20103;-68
2023/12/23 13:08:42;;;;;;;0.30;0.30;;;;;;;;;;5018294;28;21198;-70
2023/12/23 13:11:08;;;;;;;0.45;0.30;;;;;;;;;;5030481;28;20075;-69
2023/12/23 13:13:33;;;;;;;0.40;0.40;;;;;;;;;;5035670;28;20487;-69
2023/12/23 13:15:59;;;;;;;0.40;0.40;;;;;;;;;;5036384;28;20084;-70
2023/12/23 13:18:24;;;;;;;0.38;0.38;;;;;;;;;;5036279;28;20049;-70
2023/12/23 13:20:49;;;;;;;0.50;0.50;;;;;;;;;;5036476;28;20052;-70
2023/12/23 13:23:15;;;;;;;0.30;0.30;;;;;;;;;;5035799;28;20099;-70
2023/12/23 13:25:45;;;;;;;0.32;0.32;;;;;;;;;;5036052;28;20095;-70
2023/12/23 13:28:10;;;;;;;1.42;0.50;;;;;;;;;;5036838;28;20132;-71
2023/12/23 13:30:35;;;;;;;0.47;0.45;;;;;;;;;;5036117;28;20144;-69
2023/12/23 13:33:01;;;;;;;0.50;0.50;;;;;;;;;;5036030;28;20437;-69
2023/12/23 13:35:29;;;;;;;1.95;0.60;;;;;;;;;;5035662;28;20041;-69
2023/12/23 13:37:55;;;;;;;0.50;0.50;;;;;;;;;;5035511;28;20036;-69
2023/12/23 13:40:20;;;;;;;0.30;0.30;;;;;;;;;;5023286;28;20045;-69
2023/12/23 13:42:46;;;;;;;0.43;0.40;;;;;;;;;;5033824;28;20111;-69
2023/12/23 13:45:12;;;;;;;0.40;0.40;;;;;;;;;;5026670;28;20047;-68
2023/12/23 13:47:39;;;;;;;0.20;0.20;;;;;;;;;;5022898;28;20052;-68
2023/12/23 13:50:05;;;;;;;0.28;0.28;;;;;;;;;;5026876;28;20045;-69
2023/12/23 13:52:31;;;;;;;2.15;0.50;;;;;;;;;;5021418;28;20052;-69
2023/12/23 13:54:56;;;;;;;0.40;0.40;;;;;;;;;;5026451;28;20042;-69
2023/12/23 13:57:21;;;;;;;3.80;0.40;;;;;;;;;;5021504;28;20084;-68
2023/12/23 13:59:47;;;;;;;1.08;0.50;;;;;;;;;;5025638;28;20061;-68
2023/12/23 14:02:12;;;;;;;0.30;0.30;;;;;;;;;;5025479;28;20073;-68
2023/12/23 14:04:38;;;;;;;2.50;0.45;;;;;;;;;;5025580;28;20124;-69
2023/12/23 14:07:03;;;;;;;2.13;0.55;;;;;;;;;;5028728;28;20045;-69
2023/12/23 14:09:29;;;;;;;0.50;0.50;;;;;;;;;;5026831;28;20083;-69
2023/12/23 14:11:55;;;;;;;0.32;0.32;;;;;;;;;;5059401;28;20159;-70
2023/12/23 14:14:20;;;;;;;0.57;0.57;;;;;;;;;;5059425;28;20152;-69
2023/12/23 14:16:45;;;;;;;0.55;0.50;;;;;;;;;;5058350;28;20131;-69
2023/12/23 14:19:11;;;;;;;0.35;0.35;;;;;;;;;;5059677;28;20599;-69
2023/12/23 14:21:37;;;;;;;0.50;0.50;;;;;;;;;;5040083;28;20049;-69
2023/12/23 14:24:03;;;;;;;1.23;0.75;;;;;;;;;;5059456;28;20067;-69
2023/12/23 14:26:28;;;;;;;3.05;2.80;;;;;;;;;;5059247;28;20143;-68
2023/12/23 14:28:56;;;;;;;0.45;0.45;;;;;;;;;;5058328;28;20487;-69
2023/12/23 14:31:25;;;;;;;2.72;0.93;;;;;;;;;;5058986;28;20055;-70
2023/12/23 14:33:53;;;;;;;0.40;0.40;;;;;;;;;;5058636;28;20455;-69
2023/12/23 14:36:18;;;;;;;0.30;0.30;;;;;;;;;;5058645;28;20029;-68
2023/12/23 14:38:44;;;;;;;3.33;0.73;;;;;;;;;;5057838;28;20047;-68